YPGV/GOV METAR and TAF weather

Enter ICAO airport designator
Station Type Date Time Source
YPGV METAR 2019/02/20 17:00 UTC NOAA

YPGV 201700Z AUTO 32006KT 9999 // NCD 28/26 Q1009


Station Type Date Time Source
YPGV Decoded METAR 2019/02/20 17:00 UTC NOAA

Station name not available
Feb 20, 2019 - 12:00 PM EST / 2019.02.20 1700 UTC
Wind: from the NW (320 degrees) at 7 MPH (6 KT):0
Visibility: greater than 7 mile(s):0
Temperature: 82 F (28 C)
Dew Point: 78 F (26 C)
Relative Humidity: 88%
Pressure (altimeter): 29.80 in. Hg (1009 hPa)
ob: YPGV 201700Z AUTO 32006KT 9999 // NCD 28/26 Q1009
cycle: 17

Station Type Date Time Source
YPGV TAF 2019/02/20 14:00 UTC NOAA

TAF YPGV 201208Z 2014/2102 30010KT 9999 SCT030


Example: see airport list